sensor_id;sensor_type;location;lat;lon;timestamp;pressure;altitude;pressure_sealevel;temperature
12875;BMP180;6505;51.114;13.128;2023-03-14T00:00:25;97371.00;;;17.10
12875;BMP180;6505;51.114;13.128;2023-03-14T00:02:53;97379.00;;;17.20
12875;BMP180;6505;51.114;13.128;2023-03-14T00:05:22;97389.00;;;17.20
12875;BMP180;6505;51.114;13.128;2023-03-14T00:07:49;97381.00;;;17.20
12875;BMP180;6505;51.114;13.128;2023-03-14T00:10:18;97358.00;;;17.20
12875;BMP180;6505;51.114;13.128;2023-03-14T00:12:46;97373.00;;;17.20
12875;BMP180;6505;51.114;13.128;2023-03-14T00:15:15;97366.00;;;17.10
12875;BMP180;6505;51.114;13.128;2023-03-14T00:17:43;97369.00;;;17.20
12875;BMP180;6505;51.114;13.128;2023-03-14T00:20:12;97344.00;;;17.10
12875;BMP180;6505;51.114;13.128;2023-03-14T00:22:41;97365.00;;;17.10
12875;BMP180;6505;51.114;13.128;2023-03-14T00:25:11;97366.00;;;17.10
12875;BMP180;6505;51.114;13.128;2023-03-14T00:27:39;97360.00;;;17.10
12875;BMP180;6505;51.114;13.128;2023-03-14T00:30:09;97361.00;;;17.10
12875;BMP180;6505;51.114;13.128;2023-03-14T00:32:38;97351.00;;;17.10
12875;BMP180;6505;51.114;13.128;2023-03-14T00:35:09;97357.00;;;17.10
12875;BMP180;6505;51.114;13.128;2023-03-14T00:37:37;97354.00;;;17.10
12875;BMP180;6505;51.114;13.128;2023-03-14T00:40:07;97341.00;;;17.10
12875;BMP180;6505;51.114;13.128;2023-03-14T00:42:35;97344.00;;;17.10
12875;BMP180;6505;51.114;13.128;2023-03-14T00:45:04;97311.00;;;17.10
12875;BMP180;6505;51.114;13.128;2023-03-14T00:47:34;97367.00;;;17.10
12875;BMP180;6505;51.114;13.128;2023-03-14T00:50:04;97364.00;;;17.10
12875;BMP180;6505;51.114;13.128;2023-03-14T00:52:32;97385.00;;;17.10
12875;BMP180;6505;51.114;13.128;2023-03-14T00:55:00;97382.00;;;17.10
12875;BMP180;6505;51.114;13.128;2023-03-14T00:57:28;97382.00;;;17.10
12875;BMP180;6505;51.114;13.128;2023-03-14T00:59:56;97380.00;;;17.10
12875;BMP180;6505;51.114;13.128;2023-03-14T01:02:24;97367.00;;;17.10
12875;BMP180;6505;51.114;13.128;2023-03-14T01:04:52;97346.00;;;17.10
12875;BMP180;6505;51.114;13.128;2023-03-14T01:07:22;97352.00;;;17.00
12875;BMP180;6505;51.114;13.128;2023-03-14T01:09:52;97340.00;;;17.10
12875;BMP180;6505;51.114;13.128;2023-03-14T01:12:20;97357.00;;;17.00
12875;BMP180;6505;51.114;13.128;2023-03-14T01:14:48;97357.00;;;17.00
12875;BMP180;6505;51.114;13.128;2023-03-14T01:17:15;97363.00;;;17.00
12875;BMP180;6505;51.114;13.128;2023-03-14T01:19:43;97367.00;;;17.00
12875;BMP180;6505;51.114;13.128;2023-03-14T01:22:11;97370.00;;;17.00
12875;BMP180;6505;51.114;13.128;2023-03-14T01:24:41;97376.00;;;17.00
12875;BMP180;6505;51.114;13.128;2023-03-14T01:27:09;97377.00;;;17.00
12875;BMP180;6505;51.114;13.128;2023-03-14T01:29:37;97372.00;;;17.00
12875;BMP180;6505;51.114;13.128;2023-03-14T01:32:05;97372.00;;;17.00
12875;BMP180;6505;51.114;13.128;2023-03-14T01:34:33;97372.00;;;17.00
12875;BMP180;6505;51.114;13.128;2023-03-14T01:37:01;97384.00;;;17.00
12875;BMP180;6505;51.114;13.128;2023-03-14T01:39:30;97383.00;;;17.00
12875;BMP180;6505;51.114;13.128;2023-03-14T01:42:00;97391.00;;;17.00
12875;BMP180;6505;51.114;13.128;2023-03-14T01:44:28;97370.00;;;17.00
12875;BMP180;6505;51.114;13.128;2023-03-14T01:46:56;97365.00;;;17.00
12875;BMP180;6505;51.114;13.128;2023-03-14T01:49:27;97376.00;;;17.00
12875;BMP180;6505;51.114;13.128;2023-03-14T01:52:12;97371.00;;;17.00
12875;BMP180;6505;51.114;13.128;2023-03-14T01:54:43;97379.00;;;16.90
12875;BMP180;6505;51.114;13.128;2023-03-14T01:57:20;97374.00;;;16.90
12875;BMP180;6505;51.114;13.128;2023-03-14T01:59:54;97369.00;;;16.90
12875;BMP180;6505;51.114;13.128;2023-03-14T02:02:26;97369.00;;;16.80
12875;BMP180;6505;51.114;13.128;2023-03-14T02:04:55;97375.00;;;16.90
12875;BMP180;6505;51.114;13.128;2023-03-14T02:07:36;97350.00;;;16.90
12875;BMP180;6505;51.114;13.128;2023-03-14T02:10:14;97366.00;;;16.90
12875;BMP180;6505;51.114;13.128;2023-03-14T02:12:49;97362.00;;;16.90
12875;BMP180;6505;51.114;13.128;2023-03-14T02:15:30;97354.00;;;16.90
12875;BMP180;6505;51.114;13.128;2023-03-14T02:18:04;97354.00;;;16.90
12875;BMP180;6505;51.114;13.128;2023-03-14T02:21:01;97351.00;;;16.90
12875;BMP180;6505;51.114;13.128;2023-03-14T02:23:42;97355.00;;;16.70
12875;BMP180;6505;51.114;13.128;2023-03-14T02:26:20;97356.00;;;16.80
12875;BMP180;6505;51.114;13.128;2023-03-14T02:28:51;97350.00;;;16.90
12875;BMP180;6505;51.114;13.128;2023-03-14T02:31:21;97365.00;;;16.90
12875;BMP180;6505;51.114;13.128;2023-03-14T02:33:51;97354.00;;;16.90
12875;BMP180;6505;51.114;13.128;2023-03-14T02:36:20;97374.00;;;16.90
12875;BMP180;6505;51.114;13.128;2023-03-14T02:38:55;97367.00;;;16.80
12875;BMP180;6505;51.114;13.128;2023-03-14T02:41:26;97381.00;;;16.90
12875;BMP180;6505;51.114;13.128;2023-03-14T02:44:03;97364.00;;;16.80
12875;BMP180;6505;51.114;13.128;2023-03-14T02:46:31;97361.00;;;16.90
12875;BMP180;6505;51.114;13.128;2023-03-14T02:49:03;97359.00;;;16.80
12875;BMP180;6505;51.114;13.128;2023-03-14T02:51:33;97355.00;;;16.90
12875;BMP180;6505;51.114;13.128;2023-03-14T02:54:01;97348.00;;;16.90
12875;BMP180;6505;51.114;13.128;2023-03-14T02:56:29;97351.00;;;16.90
12875;BMP180;6505;51.114;13.128;2023-03-14T02:58:58;97339.00;;;16.90
12875;BMP180;6505;51.114;13.128;2023-03-14T03:01:56;97340.00;;;16.80
12875;BMP180;6505;51.114;13.128;2023-03-14T03:04:27;97334.00;;;16.90
12875;BMP180;6505;51.114;13.128;2023-03-14T03:06:55;97326.00;;;16.80
12875;BMP180;6505;51.114;13.128;2023-03-14T03:09:23;97327.00;;;16.80
12875;BMP180;6505;51.114;13.128;2023-03-14T03:11:51;97327.00;;;16.80
12875;BMP180;6505;51.114;13.128;2023-03-14T03:14:22;97314.00;;;16.80
12875;BMP180;6505;51.114;13.128;2023-03-14T03:16:50;97323.00;;;16.80
12875;BMP180;6505;51.114;13.128;2023-03-14T03:19:22;97318.00;;;16.80
12875;BMP180;6505;51.114;13.128;2023-03-14T03:21:50;97311.00;;;16.80
12875;BMP180;6505;51.114;13.128;2023-03-14T03:24:17;97311.00;;;16.90
12875;BMP180;6505;51.114;13.128;2023-03-14T03:26:45;97326.00;;;16.80
12875;BMP180;6505;51.114;13.128;2023-03-14T03:29:13;97333.00;;;16.80
12875;BMP180;6505;51.114;13.128;2023-03-14T03:31:41;97340.00;;;16.80
12875;BMP180;6505;51.114;13.128;2023-03-14T03:34:12;97280.00;;;16.80
12875;BMP180;6505;51.114;13.128;2023-03-14T03:36:42;97318.00;;;16.80
12875;BMP180;6505;51.114;13.128;2023-03-14T03:39:11;97317.00;;;16.80
12875;BMP180;6505;51.114;13.128;2023-03-14T03:41:39;97318.00;;;16.80
12875;BMP180;6505;51.114;13.128;2023-03-14T03:44:08;97318.00;;;16.80
12875;BMP180;6505;51.114;13.128;2023-03-14T03:46:37;97326.00;;;16.80
12875;BMP180;6505;51.114;13.128;2023-03-14T03:49:05;97316.00;;;16.80
12875;BMP180;6505;51.114;13.128;2023-03-14T03:51:33;97317.00;;;16.80
12875;BMP180;6505;51.114;13.128;2023-03-14T03:54:02;97307.00;;;16.80
12875;BMP180;6505;51.114;13.128;2023-03-14T03:56:32;97306.00;;;16.80
12875;BMP180;6505;51.114;13.128;2023-03-14T03:59:00;97312.00;;;16.80
12875;BMP180;6505;51.114;13.128;2023-03-14T04:01:28;97308.00;;;16.70
12875;BMP180;6505;51.114;13.128;2023-03-14T04:03:58;97307.00;;;16.80
12875;BMP180;6505;51.114;13.128;2023-03-14T04:06:27;97301.00;;;16.80
12875;BMP180;6505;51.114;13.128;2023-03-14T04:08:57;97301.00;;;16.80
12875;BMP180;6505;51.114;13.128;2023-03-14T04:11:34;97304.00;;;16.80
12875;BMP180;6505;51.114;13.128;2023-03-14T04:14:14;97303.00;;;16.80
12875;BMP180;6505;51.114;13.128;2023-03-14T04:16:43;97299.00;;;16.80
12875;BMP180;6505;51.114;13.128;2023-03-14T04:19:14;97298.00;;;16.80
12875;BMP180;6505;51.114;13.128;2023-03-14T04:21:42;97306.00;;;16.80
12875;BMP180;6505;51.114;13.128;2023-03-14T04:24:13;97295.00;;;16.80
12875;BMP180;6505;51.114;13.128;2023-03-14T04:26:46;97299.00;;;16.80
12875;BMP180;6505;51.114;13.128;2023-03-14T04:29:14;97300.00;;;16.80
12875;BMP180;6505;51.114;13.128;2023-03-14T04:31:44;97300.00;;;16.80
12875;BMP180;6505;51.114;13.128;2023-03-14T04:34:12;97295.00;;;16.80
12875;BMP180;6505;51.114;13.128;2023-03-14T04:36:46;97286.00;;;16.80
12875;BMP180;6505;51.114;13.128;2023-03-14T04:39:19;97280.00;;;16.80
12875;BMP180;6505;51.114;13.128;2023-03-14T04:41:54;97286.00;;;16.80
12875;BMP180;6505;51.114;13.128;2023-03-14T04:44:23;97277.00;;;16.80
12875;BMP180;6505;51.114;13.128;2023-03-14T04:46:52;97282.00;;;16.80
12875;BMP180;6505;51.114;13.128;2023-03-14T04:49:21;97275.00;;;16.60
12875;BMP180;6505;51.114;13.128;2023-03-14T04:51:49;97272.00;;;16.80
12875;BMP180;6505;51.114;13.128;2023-03-14T04:54:18;97272.00;;;16.80
12875;BMP180;6505;51.114;13.128;2023-03-14T04:56:50;97272.00;;;16.80
12875;BMP180;6505;51.114;13.128;2023-03-14T04:59:19;97275.00;;;16.80
12875;BMP180;6505;51.114;13.128;2023-03-14T05:01:50;97279.00;;;16.80
12875;BMP180;6505;51.114;13.128;2023-03-14T05:04:33;97245.00;;;16.80
12875;BMP180;6505;51.114;13.128;2023-03-14T05:07:34;97276.00;;;16.70
12875;BMP180;6505;51.114;13.128;2023-03-14T05:10:10;97275.00;;;16.70
12875;BMP180;6505;51.114;13.128;2023-03-14T05:12:54;97266.00;;;16.70
12875;BMP180;6505;51.114;13.128;2023-03-14T05:15:48;97266.00;;;16.70
12875;BMP180;6505;51.114;13.128;2023-03-14T05:18:40;97237.00;;;16.70
12875;BMP180;6505;51.114;13.128;2023-03-14T05:21:23;97257.00;;;16.70
12875;BMP180;6505;51.114;13.128;2023-03-14T05:24:08;97231.00;;;16.70
12875;BMP180;6505;51.114;13.128;2023-03-14T05:26:54;97236.00;;;16.70
12875;BMP180;6505;51.114;13.128;2023-03-14T05:29:32;97232.00;;;16.70
12875;BMP180;6505;51.114;13.128;2023-03-14T05:32:28;97236.00;;;16.70
12875;BMP180;6505;51.114;13.128;2023-03-14T05:35:08;97228.00;;;16.70
12875;BMP180;6505;51.114;13.128;2023-03-14T05:37:42;97234.00;;;16.70
12875;BMP180;6505;51.114;13.128;2023-03-14T05:40:29;97216.00;;;16.70
12875;BMP180;6505;51.114;13.128;2023-03-14T05:43:06;97233.00;;;16.60
12875;BMP180;6505;51.114;13.128;2023-03-14T05:45:49;97245.00;;;16.60
12875;BMP180;6505;51.114;13.128;2023-03-14T05:48:39;97211.00;;;16.60
12875;BMP180;6505;51.114;13.128;2023-03-14T05:51:26;97256.00;;;16.60
12875;BMP180;6505;51.114;13.128;2023-03-14T05:54:04;97257.00;;;16.60
12875;BMP180;6505;51.114;13.128;2023-03-14T05:56:38;97264.00;;;16.60
12875;BMP180;6505;51.114;13.128;2023-03-14T05:59:13;97259.00;;;16.60
12875;BMP180;6505;51.114;13.128;2023-03-14T06:01:51;97262.00;;;16.60
12875;BMP180;6505;51.114;13.128;2023-03-14T06:04:24;97254.00;;;16.60
12875;BMP180;6505;51.114;13.128;2023-03-14T06:06:56;97268.00;;;16.60
12875;BMP180;6505;51.114;13.128;2023-03-14T06:09:24;97259.00;;;16.60
12875;BMP180;6505;51.114;13.128;2023-03-14T06:11:55;97259.00;;;16.60
12875;BMP180;6505;51.114;13.128;2023-03-14T06:14:24;97266.00;;;16.60
12875;BMP180;6505;51.114;13.128;2023-03-14T06:16:52;97266.00;;;16.60
12875;BMP180;6505;51.114;13.128;2023-03-14T06:19:24;97267.00;;;16.60
12875;BMP180;6505;51.114;13.128;2023-03-14T06:21:52;97263.00;;;16.60
12875;BMP180;6505;51.114;13.128;2023-03-14T06:24:20;97266.00;;;16.70
12875;BMP180;6505;51.114;13.128;2023-03-14T06:26:50;97266.00;;;16.70
12875;BMP180;6505;51.114;13.128;2023-03-14T06:29:19;97272.00;;;16.70
12875;BMP180;6505;51.114;13.128;2023-03-14T06:31:47;97280.00;;;16.70
12875;BMP180;6505;51.114;13.128;2023-03-14T06:34:17;97290.00;;;16.60
12875;BMP180;6505;51.114;13.128;2023-03-14T06:36:46;97282.00;;;16.60
12875;BMP180;6505;51.114;13.128;2023-03-14T06:39:14;97297.00;;;16.70
12875;BMP180;6505;51.114;13.128;2023-03-14T06:41:45;97290.00;;;16.60
12875;BMP180;6505;51.114;13.128;2023-03-14T06:44:13;97282.00;;;16.70
12875;BMP180;6505;51.114;13.128;2023-03-14T06:46:41;97281.00;;;16.70
12875;BMP180;6505;51.114;13.128;2023-03-14T06:49:09;97285.00;;;16.70
12875;BMP180;6505;51.114;13.128;2023-03-14T06:51:37;97286.00;;;16.70
12875;BMP180;6505;51.114;13.128;2023-03-14T06:54:09;97294.00;;;16.70
12875;BMP180;6505;51.114;13.128;2023-03-14T06:56:37;97287.00;;;16.70
12875;BMP180;6505;51.114;13.128;2023-03-14T06:59:06;97286.00;;;16.70
12875;BMP180;6505;51.114;13.128;2023-03-14T07:01:34;97282.00;;;16.50
12875;BMP180;6505;51.114;13.128;2023-03-14T07:04:06;97297.00;;;16.70
12875;BMP180;6505;51.114;13.128;2023-03-14T07:06:36;97300.00;;;16.70
12875;BMP180;6505;51.114;13.128;2023-03-14T07:09:06;97291.00;;;16.70
12875;BMP180;6505;51.114;13.128;2023-03-14T07:11:39;97284.00;;;16.70
12875;BMP180;6505;51.114;13.128;2023-03-14T07:14:07;97302.00;;;16.70
12875;BMP180;6505;51.114;13.128;2023-03-14T07:16:35;97296.00;;;16.70
12875;BMP180;6505;51.114;13.128;2023-03-14T07:19:03;97284.00;;;16.70
12875;BMP180;6505;51.114;13.128;2023-03-14T07:21:31;97285.00;;;16.70
12875;BMP180;6505;51.114;13.128;2023-03-14T07:24:05;97288.00;;;16.70
12875;BMP180;6505;51.114;13.128;2023-03-14T07:26:33;97288.00;;;16.70
12875;BMP180;6505;51.114;13.128;2023-03-14T07:29:03;97283.00;;;16.70
12875;BMP180;6505;51.114;13.128;2023-03-14T07:31:31;97281.00;;;16.70
12875;BMP180;6505;51.114;13.128;2023-03-14T07:34:01;97285.00;;;16.70
12875;BMP180;6505;51.114;13.128;2023-03-14T07:36:34;97282.00;;;16.70
12875;BMP180;6505;51.114;13.128;2023-03-14T07:39:02;97292.00;;;16.70
12875;BMP180;6505;51.114;13.128;2023-03-14T07:41:51;97283.00;;;16.70
12875;BMP180;6505;51.114;13.128;2023-03-14T07:44:41;97287.00;;;16.70
12875;BMP180;6505;51.114;13.128;2023-03-14T07:47:09;97279.00;;;16.80
12875;BMP180;6505;51.114;13.128;2023-03-14T07:49:38;97273.00;;;16.80
12875;BMP180;6505;51.114;13.128;2023-03-14T07:52:06;97280.00;;;16.80
12875;BMP180;6505;51.114;13.128;2023-03-14T07:54:34;97281.00;;;16.80
12875;BMP180;6505;51.114;13.128;2023-03-14T07:57:02;97280.00;;;16.80
12875;BMP180;6505;51.114;13.128;2023-03-14T07:59:30;97282.00;;;16.80
12875;BMP180;6505;51.114;13.128;2023-03-14T08:02:00;97274.00;;;16.80
12875;BMP180;6505;51.114;13.128;2023-03-14T08:04:28;97283.00;;;16.80
12875;BMP180;6505;51.114;13.128;2023-03-14T08:06:55;97233.00;;;16.80
12875;BMP180;6505;51.114;13.128;2023-03-14T08:09:24;97290.00;;;16.80
12875;BMP180;6505;51.114;13.128;2023-03-14T08:11:51;97290.00;;;16.80
12875;BMP180;6505;51.114;13.128;2023-03-14T08:14:19;97284.00;;;16.90
12875;BMP180;6505;51.114;13.128;2023-03-14T08:16:50;97280.00;;;16.80
12875;BMP180;6505;51.114;13.128;2023-03-14T08:19:20;97284.00;;;16.90
12875;BMP180;6505;51.114;13.128;2023-03-14T08:21:48;97289.00;;;16.90
12875;BMP180;6505;51.114;13.128;2023-03-14T08:24:16;97283.00;;;16.90
12875;BMP180;6505;51.114;13.128;2023-03-14T08:26:44;97273.00;;;16.90
12875;BMP180;6505;51.114;13.128;2023-03-14T08:29:12;97275.00;;;16.90
12875;BMP180;6505;51.114;13.128;2023-03-14T08:31:39;97277.00;;;16.90
12875;BMP180;6505;51.114;13.128;2023-03-14T08:34:08;97280.00;;;16.90
12875;BMP180;6505;51.114;13.128;2023-03-14T08:36:37;97274.00;;;17.00
12875;BMP180;6505;51.114;13.128;2023-03-14T08:39:05;97264.00;;;17.00
12875;BMP180;6505;51.114;13.128;2023-03-14T08:41:34;97271.00;;;17.00
12875;BMP180;6505;51.114;13.128;2023-03-14T08:44:06;97257.00;;;17.00
12875;BMP180;6505;51.114;13.128;2023-03-14T08:46:35;97259.00;;;17.00
12875;BMP180;6505;51.114;13.128;2023-03-14T08:49:03;97260.00;;;17.00
12875;BMP180;6505;51.114;13.128;2023-03-14T08:51:31;97255.00;;;17.10
12875;BMP180;6505;51.114;13.128;2023-03-14T08:54:00;97257.00;;;17.10
12875;BMP180;6505;51.114;13.128;2023-03-14T08:56:28;97257.00;;;17.10
12875;BMP180;6505;51.114;13.128;2023-03-14T08:58:56;97254.00;;;17.10
12875;BMP180;6505;51.114;13.128;2023-03-14T09:01:24;97218.00;;;17.10
12875;BMP180;6505;51.114;13.128;2023-03-14T09:03:53;97267.00;;;17.20
12875;BMP180;6505;51.114;13.128;2023-03-14T09:06:21;97266.00;;;17.20
12875;BMP180;6505;51.114;13.128;2023-03-14T09:08:49;97269.00;;;17.20
12875;BMP180;6505;51.114;13.128;2023-03-14T09:11:18;97271.00;;;17.20
12875;BMP180;6505;51.114;13.128;2023-03-14T09:13:46;97279.00;;;17.20
12875;BMP180;6505;51.114;13.128;2023-03-14T09:16:15;97282.00;;;17.20
12875;BMP180;6505;51.114;13.128;2023-03-14T09:18:43;97283.00;;;17.20
12875;BMP180;6505;51.114;13.128;2023-03-14T09:21:11;97293.00;;;17.30
12875;BMP180;6505;51.114;13.128;2023-03-14T09:23:39;97280.00;;;17.30
12875;BMP180;6505;51.114;13.128;2023-03-14T09:26:07;97299.00;;;17.30
12875;BMP180;6505;51.114;13.128;2023-03-14T09:28:36;97303.00;;;17.30
12875;BMP180;6505;51.114;13.128;2023-03-14T09:31:09;97304.00;;;17.30
12875;BMP180;6505;51.114;13.128;2023-03-14T09:33:38;97305.00;;;17.30
12875;BMP180;6505;51.114;13.128;2023-03-14T09:36:07;97301.00;;;17.30
12875;BMP180;6505;51.114;13.128;2023-03-14T09:38:35;97292.00;;;17.30
12875;BMP180;6505;51.114;13.128;2023-03-14T09:41:15;97295.00;;;17.30
12875;BMP180;6505;51.114;13.128;2023-03-14T09:43:47;97267.00;;;17.30
12875;BMP180;6505;51.114;13.128;2023-03-14T09:46:18;97294.00;;;17.30
12875;BMP180;6505;51.114;13.128;2023-03-14T09:48:46;97286.00;;;17.40
12875;BMP180;6505;51.114;13.128;2023-03-14T09:51:17;97293.00;;;17.30
12875;BMP180;6505;51.114;13.128;2023-03-14T09:53:49;97297.00;;;17.40
12875;BMP180;6505;51.114;13.128;2023-03-14T09:56:21;97304.00;;;17.30
12875;BMP180;6505;51.114;13.128;2023-03-14T09:58:56;97296.00;;;17.20
12875;BMP180;6505;51.114;13.128;2023-03-14T10:01:28;97299.00;;;17.40
12875;BMP180;6505;51.114;13.128;2023-03-14T10:04:05;97297.00;;;17.40
12875;BMP180;6505;51.114;13.128;2023-03-14T10:06:34;97297.00;;;17.40
12875;BMP180;6505;51.114;13.128;2023-03-14T10:09:03;97294.00;;;17.40
12875;BMP180;6505;51.114;13.128;2023-03-14T10:11:32;97295.00;;;17.40
12875;BMP180;6505;51.114;13.128;2023-03-14T10:14:07;97294.00;;;17.40
12875;BMP180;6505;51.114;13.128;2023-03-14T10:16:40;97295.00;;;17.40
12875;BMP180;6505;51.114;13.128;2023-03-14T10:19:11;97296.00;;;17.40
12875;BMP180;6505;51.114;13.128;2023-03-14T10:21:42;97286.00;;;17.40
12875;BMP180;6505;51.114;13.128;2023-03-14T10:24:20;97307.00;;;17.40
12875;BMP180;6505;51.114;13.128;2023-03-14T10:26:49;97310.00;;;17.50
12875;BMP180;6505;51.114;13.128;2023-03-14T10:29:21;97290.00;;;17.50
12875;BMP180;6505;51.114;13.128;2023-03-14T10:31:53;97302.00;;;17.50
12875;BMP180;6505;51.114;13.128;2023-03-14T10:34:25;97294.00;;;17.50
12875;BMP180;6505;51.114;13.128;2023-03-14T10:36:56;97286.00;;;17.50
12875;BMP180;6505;51.114;13.128;2023-03-14T10:39:37;97285.00;;;17.50
12875;BMP180;6505;51.114;13.128;2023-03-14T10:42:18;97292.00;;;17.50
12875;BMP180;6505;51.114;13.128;2023-03-14T10:44:54;97280.00;;;17.50
12875;BMP180;6505;51.114;13.128;2023-03-14T10:47:25;97289.00;;;17.50
12875;BMP180;6505;51.114;13.128;2023-03-14T10:49:55;97278.00;;;17.50
12875;BMP180;6505;51.114;13.128;2023-03-14T10:52:27;97279.00;;;17.50
12875;BMP180;6505;51.114;13.128;2023-03-14T10:55:11;97279.00;;;17.60
12875;BMP180;6505;51.114;13.128;2023-03-14T10:57:39;97284.00;;;17.60
12875;BMP180;6505;51.114;13.128;2023-03-14T11:00:16;97270.00;;;17.60
12875;BMP180;6505;51.114;13.128;2023-03-14T11:03:02;97285.00;;;17.60
12875;BMP180;6505;51.114;13.128;2023-03-14T11:05:40;97286.00;;;17.60
12875;BMP180;6505;51.114;13.128;2023-03-14T11:08:20;97288.00;;;17.60
12875;BMP180;6505;51.114;13.128;2023-03-14T11:10:54;97284.00;;;17.60
12875;BMP180;6505;51.114;13.128;2023-03-14T11:13:27;97280.00;;;17.70
12875;BMP180;6505;51.114;13.128;2023-03-14T11:16:07;97282.00;;;17.70
12875;BMP180;6505;51.114;13.128;2023-03-14T11:18:53;97285.00;;;17.50
12875;BMP180;6505;51.114;13.128;2023-03-14T11:21:33;97275.00;;;17.70
12875;BMP180;6505;51.114;13.128;2023-03-14T11:24:36;97276.00;;;17.70
12875;BMP180;6505;51.114;13.128;2023-03-14T11:27:16;97288.00;;;17.70
12875;BMP180;6505;51.114;13.128;2023-03-14T11:29:54;97266.00;;;17.70
12875;BMP180;6505;51.114;13.128;2023-03-14T11:32:38;97275.00;;;17.70
12875;BMP180;6505;51.114;13.128;2023-03-14T11:35:20;97263.00;;;17.70
12875;BMP180;6505;51.114;13.128;2023-03-14T11:37:54;97260.00;;;17.70
12875;BMP180;6505;51.114;13.128;2023-03-14T11:40:27;97248.00;;;17.80
12875;BMP180;6505;51.114;13.128;2023-03-14T11:43:03;97248.00;;;17.80
12875;BMP180;6505;51.114;13.128;2023-03-14T11:45:36;97237.00;;;17.80
12875;BMP180;6505;51.114;13.128;2023-03-14T11:48:19;97254.00;;;17.80
12875;BMP180;6505;51.114;13.128;2023-03-14T11:50:55;97215.00;;;17.80
12875;BMP180;6505;51.114;13.128;2023-03-14T11:53:43;97229.00;;;17.80
12875;BMP180;6505;51.114;13.128;2023-03-14T11:56:24;97242.00;;;17.80
12875;BMP180;6505;51.114;13.128;2023-03-14T11:58:58;97257.00;;;17.90
12875;BMP180;6505;51.114;13.128;2023-03-14T12:01:44;97254.00;;;17.90
12875;BMP180;6505;51.114;13.128;2023-03-14T12:04:25;97269.00;;;17.90
12875;BMP180;6505;51.114;13.128;2023-03-14T12:07:04;97262.00;;;17.90
12875;BMP180;6505;51.114;13.128;2023-03-14T12:09:37;97282.00;;;17.90
12875;BMP180;6505;51.114;13.128;2023-03-14T12:12:06;97289.00;;;18.00
12875;BMP180;6505;51.114;13.128;2023-03-14T12:14:47;97287.00;;;17.90
12875;BMP180;6505;51.114;13.128;2023-03-14T12:17:22;97267.00;;;17.90
12875;BMP180;6505;51.114;13.128;2023-03-14T12:20:05;97257.00;;;17.90
12875;BMP180;6505;51.114;13.128;2023-03-14T12:22:44;97256.00;;;17.80
12875;BMP180;6505;51.114;13.128;2023-03-14T12:25:18;97261.00;;;18.00
12875;BMP180;6505;51.114;13.128;2023-03-14T12:28:20;97261.00;;;17.90
12875;BMP180;6505;51.114;13.128;2023-03-14T12:30:48;97263.00;;;18.00
12875;BMP180;6505;51.114;13.128;2023-03-14T12:33:32;97258.00;;;17.90
12875;BMP180;6505;51.114;13.128;2023-03-14T12:36:05;97257.00;;;18.00
12875;BMP180;6505;51.114;13.128;2023-03-14T12:39:21;97259.00;;;17.90
12875;BMP180;6505;51.114;13.128;2023-03-14T12:41:53;97258.00;;;18.00
12875;BMP180;6505;51.114;13.128;2023-03-14T12:44:45;97222.00;;;18.00
12875;BMP180;6505;51.114;13.128;2023-03-14T12:50:43;97240.00;;;18.00
12875;BMP180;6505;51.114;13.128;2023-03-14T12:53:58;97249.00;;;18.00
12875;BMP180;6505;51.114;13.128;2023-03-14T12:56:48;97246.00;;;18.00
12875;BMP180;6505;51.114;13.128;2023-03-14T12:59:32;97249.00;;;18.00
12875;BMP180;6505;51.114;13.128;2023-03-14T13:02:21;97236.00;;;18.00
12875;BMP180;6505;51.114;13.128;2023-03-14T13:04:59;97241.00;;;18.10
12875;BMP180;6505;51.114;13.128;2023-03-14T13:07:34;97235.00;;;18.00
12875;BMP180;6505;51.114;13.128;2023-03-14T13:10:19;97198.00;;;18.00
12875;BMP180;6505;51.114;13.128;2023-03-14T13:12:52;97211.00;;;18.10
12875;BMP180;6505;51.114;13.128;2023-03-14T13:15:30;97222.00;;;18.10
12875;BMP180;6505;51.114;13.128;2023-03-14T13:18:03;97214.00;;;18.10
12875;BMP180;6505;51.114;13.128;2023-03-14T13:20:41;97210.00;;;18.10
12875;BMP180;6505;51.114;13.128;2023-03-14T13:23:22;97210.00;;;18.10
12875;BMP180;6505;51.114;13.128;2023-03-14T13:25:53;97206.00;;;18.20
12875;BMP180;6505;51.114;13.128;2023-03-14T13:28:22;97204.00;;;18.20
12875;BMP180;6505;51.114;13.128;2023-03-14T13:30:56;97218.00;;;18.20
12875;BMP180;6505;51.114;13.128;2023-03-14T13:33:25;97224.00;;;18.20
12875;BMP180;6505;51.114;13.128;2023-03-14T13:35:58;97209.00;;;18.20
12875;BMP180;6505;51.114;13.128;2023-03-14T13:38:28;97209.00;;;18.20
12875;BMP180;6505;51.114;13.128;2023-03-14T13:41:00;97167.00;;;18.20
12875;BMP180;6505;51.114;13.128;2023-03-14T13:43:33;97206.00;;;18.20
12875;BMP180;6505;51.114;13.128;2023-03-14T13:46:05;97209.00;;;18.30
12875;BMP180;6505;51.114;13.128;2023-03-14T13:48:40;97207.00;;;18.30
12875;BMP180;6505;51.114;13.128;2023-03-14T13:51:13;97209.00;;;18.30
12875;BMP180;6505;51.114;13.128;2023-03-14T13:53:47;97196.00;;;18.30
12875;BMP180;6505;51.114;13.128;2023-03-14T13:56:20;97198.00;;;18.30
12875;BMP180;6505;51.114;13.128;2023-03-14T13:58:49;97202.00;;;18.30
12875;BMP180;6505;51.114;13.128;2023-03-14T14:01:19;97189.00;;;18.30
12875;BMP180;6505;51.114;13.128;2023-03-14T14:03:51;97153.00;;;18.30
12875;BMP180;6505;51.114;13.128;2023-03-14T14:06:29;97179.00;;;18.30
12875;BMP180;6505;51.114;13.128;2023-03-14T14:09:01;97187.00;;;18.30
12875;BMP180;6505;51.114;13.128;2023-03-14T14:11:43;97183.00;;;18.30
12875;BMP180;6505;51.114;13.128;2023-03-14T14:14:37;97182.00;;;18.30
12875;BMP180;6505;51.114;13.128;2023-03-14T14:17:12;97180.00;;;18.30
12875;BMP180;6505;51.114;13.128;2023-03-14T14:19:42;97176.00;;;18.40
12875;BMP180;6505;51.114;13.128;2023-03-14T14:22:11;97172.00;;;18.40
12875;BMP180;6505;51.114;13.128;2023-03-14T14:24:40;97175.00;;;18.40
12875;BMP180;6505;51.114;13.128;2023-03-14T14:27:15;97158.00;;;18.40
12875;BMP180;6505;51.114;13.128;2023-03-14T14:29:44;97155.00;;;18.40
12875;BMP180;6505;51.114;13.128;2023-03-14T14:32:23;97170.00;;;18.40
12875;BMP180;6505;51.114;13.128;2023-03-14T14:34:58;97173.00;;;18.30
12875;BMP180;6505;51.114;13.128;2023-03-14T14:37:29;97160.00;;;18.40
12875;BMP180;6505;51.114;13.128;2023-03-14T14:40:06;97176.00;;;18.40
12875;BMP180;6505;51.114;13.128;2023-03-14T14:42:40;97174.00;;;18.40
12875;BMP180;6505;51.114;13.128;2023-03-14T14:45:16;97177.00;;;18.40